TFM - Tactical Decision Aid (Experimental) INFO Settings
ID: Runway Winds: CIG/VIS Threshold: METAR Board: Map:

KDFW - Dallas/Fort Worth Intl

Updated at: 1846 UTC 26 May 2017
Latest TAF at: 1730 UTC 26 May 2017

TAF Board

Time1753Z26/19Z26/20Z26/21Z26/22Z26/23Z27/00Z27/01Z27/02Z27/03Z27/04Z27/05Z27/06Z27/07Z
TypeOBSPRVLPRVLPRVLPRVLPRVLPRVLPRVLPRVLPRVLPRVLPRVLPRVLPRVL
VIS10>6>6>6>6>6>6>6>6>6>6>6>6>6
CIG----------------------------
CoverSCTSCTSCTSCTSCTSCTSCTSCTSCTSCTSCTSCTSCTSCT
FltCatVFRVFRVFRVFRVFRVFRVFRVFRVFRVFRVFRVFRVFRVFR
WX----------------------------
WDir200200200200200200200200170170170170170170
WSpd1820202020202020141414141414
WGst23--------------------------
TAF
KDFW 261730Z 2618/2724 20020KT P6SM SCT040 SCT300
  FM270200 17014KT P6SM SCT250
  FM270800 19016KT P6SM BKN015
  FM271500 19017KT P6SM BKN025
  FM271800 18017KT P6SM BKN035


METAR
KDFW 261753Z 20018G23KT 10SM SCT040 SCT300 34/23 A2976 RMK AO2 PK WND 20027/1719 SLP067 T03440228 10344 20250 50001

TAF/METAR Board Legend

Potential Impact
  None Marginal Slight Moderate High
Visibility (sm) >5 3≤X≤5 1≤X<3 0.5≤X<1 <0.5
Ceiling (100 ft) >30 10≤X≤30 4≤X<10 2≤X<4 <2
Wind Speed (kt) <10 10≤X<20 20≤X<30 ≥30
Wind Gust (kt) <15 15≤X<25 25≤X<35 ≥35
Weather No Wx Reported VCTS -TS,-FZRA TS,FZRA +TS,+FZRA




Page loaded:  18:46 UTC  |   11:46 AM Pacific  |   12:46 PM Mountain  |   01:46 PM Central  |   02:46 PM Eastern